createdAt,value
2019-05-18T00:00:39.817Z,23.53
2019-05-18T00:03:24.294Z,25.10
2019-05-18T00:06:08.714Z,24.10
2019-05-18T00:08:52.996Z,24.00
2019-05-18T00:11:36.854Z,23.37
2019-05-18T00:14:20.681Z,25.47
2019-05-18T00:17:07.902Z,26.43
2019-05-18T00:19:52.907Z,25.13
2019-05-18T00:22:37.358Z,25.83
2019-05-18T00:25:22.009Z,24.63
2019-05-18T00:28:06.284Z,25.37
2019-05-18T00:30:51.294Z,25.23
2019-05-18T00:36:45.760Z,25.23
2019-05-18T00:39:29.505Z,26.20
2019-05-18T00:42:13.397Z,26.60
2019-05-18T00:44:57.901Z,24.40
2019-05-18T00:47:42.512Z,25.80
2019-05-18T00:53:28.804Z,25.33
2019-05-18T00:56:13.055Z,24.67
2019-05-18T00:58:58.907Z,27.97
2019-05-18T01:01:42.956Z,24.87
2019-05-18T01:04:29.394Z,26.17
2019-05-18T01:07:13.641Z,27.90
2019-05-18T01:09:59.770Z,24.05
2019-05-18T01:12:43.690Z,24.90
2019-05-18T01:15:27.890Z,26.20
2019-05-18T01:18:12.161Z,27.83
2019-05-18T01:20:56.828Z,26.70
2019-05-18T01:23:41.081Z,26.73
2019-05-18T01:26:24.738Z,27.50
2019-05-18T01:29:08.503Z,26.50
2019-05-18T01:31:54.331Z,26.62
2019-05-18T01:34:38.452Z,28.47
2019-05-18T01:37:24.526Z,26.05
2019-05-18T01:43:09.755Z,26.27
2019-05-18T01:45:54.458Z,26.70
2019-05-18T01:48:39.017Z,27.05
2019-05-18T01:51:25.297Z,28.67
2019-05-18T01:54:08.843Z,27.60
2019-05-18T01:56:54.397Z,26.17
2019-05-18T01:59:38.483Z,27.03
2019-05-18T02:02:22.154Z,25.00
2019-05-18T02:05:06.284Z,27.48
2019-05-18T02:07:51.783Z,24.77
2019-05-18T02:10:36.359Z,28.25
2019-05-18T02:13:20.578Z,26.10
2019-05-18T02:16:04.254Z,27.77
2019-05-18T02:18:48.768Z,25.73
2019-05-18T02:21:33.255Z,26.73
2019-05-18T02:24:17.013Z,27.97
2019-05-18T02:27:01.146Z,26.63
2019-05-18T02:29:44.965Z,27.57
2019-05-18T02:32:29.553Z,27.17
2019-05-18T02:35:13.310Z,27.57
2019-05-18T02:38:14.348Z,28.83
2019-05-18T02:40:58.079Z,29.77
2019-05-18T02:43:42.649Z,29.67
2019-05-18T02:46:26.448Z,27.73
2019-05-18T02:49:10.660Z,31.47
2019-05-18T02:51:55.955Z,29.10
2019-05-18T02:54:40.328Z,30.03
2019-05-18T02:57:24.304Z,31.43
2019-05-18T03:00:09.095Z,28.83
2019-05-18T03:02:54.418Z,30.03
2019-05-18T03:05:38.679Z,29.77
2019-05-18T03:08:22.468Z,29.13
2019-05-18T03:11:07.013Z,29.80
2019-05-18T03:13:50.725Z,27.53
2019-05-18T03:16:34.968Z,29.33
2019-05-18T03:19:19.191Z,27.83
2019-05-18T03:22:03.212Z,30.90
2019-05-18T03:24:47.014Z,28.80
2019-05-18T03:27:33.107Z,31.17
2019-05-18T03:30:17.379Z,29.33
2019-05-18T03:33:01.410Z,30.13
2019-05-18T03:35:45.789Z,28.57
2019-05-18T03:38:30.720Z,29.00
2019-05-18T03:41:14.735Z,28.90
2019-05-18T03:43:59.069Z,26.87
2019-05-18T03:46:43.540Z,28.20
2019-05-18T03:49:28.036Z,28.37
2019-05-18T03:52:12.423Z,28.00
2019-05-18T03:54:56.989Z,30.57
2019-05-18T03:57:41.173Z,26.73
2019-05-18T04:00:24.824Z,29.75
2019-05-18T04:03:08.340Z,27.97
2019-05-18T04:05:51.942Z,28.73
2019-05-18T04:08:36.378Z,28.33
2019-05-18T04:11:20.521Z,27.93
2019-05-18T04:14:08.304Z,27.47
2019-05-18T04:16:52.179Z,28.23
2019-05-18T04:19:46.524Z,27.70
2019-05-18T04:22:22.247Z,25.90
2019-05-18T04:24:54.861Z,26.15
2019-05-18T04:27:38.465Z,26.53
2019-05-18T04:30:23.107Z,25.13
2019-05-18T04:33:06.927Z,27.80
2019-05-18T04:35:50.709Z,27.27
2019-05-18T04:38:35.196Z,26.17
2019-05-18T04:41:18.807Z,25.60
2019-05-18T04:44:02.684Z,26.02
2019-05-18T04:46:48.183Z,26.27
2019-05-18T04:49:32.338Z,27.03
2019-05-18T04:52:16.013Z,28.23
2019-05-18T04:55:00.188Z,26.60
2019-05-18T04:57:43.991Z,26.20
2019-05-18T05:00:28.292Z,26.37
2019-05-18T05:03:12.920Z,28.67
2019-05-18T05:05:56.714Z,26.70
2019-05-18T05:08:40.616Z,26.37
2019-05-18T05:11:24.222Z,27.40
2019-05-18T05:14:07.976Z,27.07
2019-05-18T05:16:52.673Z,26.03
2019-05-18T05:19:38.621Z,26.97
2019-05-18T05:22:22.682Z,25.40
2019-05-18T05:25:07.973Z,27.17
2019-05-18T05:27:51.872Z,26.70
2019-05-18T05:30:37.421Z,27.17
2019-05-18T05:33:21.866Z,26.62
2019-05-18T05:36:08.104Z,28.60
2019-05-18T05:38:52.004Z,27.43
2019-05-18T05:41:36.125Z,26.07
2019-05-18T05:44:26.421Z,26.23
2019-05-18T05:47:10.037Z,26.10
2019-05-18T05:49:54.536Z,24.53
2019-05-18T05:52:38.483Z,24.07
2019-05-18T05:55:22.056Z,24.70
2019-05-18T05:58:05.696Z,24.37
2019-05-18T06:00:49.945Z,26.17
2019-05-18T06:03:33.437Z,26.17
2019-05-18T06:06:18.181Z,24.53
2019-05-18T06:09:05.836Z,23.43
2019-05-18T06:11:49.894Z,23.50
2019-05-18T06:14:34.297Z,24.33
2019-05-18T06:17:18.653Z,23.13
2019-05-18T06:20:04.233Z,22.73
2019-05-18T06:22:49.457Z,22.05
2019-05-18T06:25:34.488Z,22.90
2019-05-18T06:28:18.870Z,21.87
2019-05-18T06:31:02.811Z,21.13
2019-05-18T06:33:47.683Z,21.07
2019-05-18T06:36:32.049Z,22.67
2019-05-18T06:39:17.362Z,22.60
2019-05-18T06:42:01.463Z,21.65
2019-05-18T06:44:45.974Z,22.10
2019-05-18T06:47:30.356Z,21.23
2019-05-18T06:50:14.561Z,21.27
2019-05-18T06:53:04.392Z,20.87
2019-05-18T06:55:49.064Z,21.63
2019-05-18T06:58:35.132Z,20.70
2019-05-18T07:01:19.513Z,21.50
2019-05-18T07:04:05.884Z,21.43
2019-05-18T07:06:49.819Z,19.27
2019-05-18T07:09:40.191Z,21.27
2019-05-18T07:12:24.087Z,19.70
2019-05-18T07:15:08.234Z,20.20
2019-05-18T07:17:52.636Z,19.77
2019-05-18T07:20:36.425Z,19.50
2019-05-18T07:23:21.197Z,22.07
2019-05-18T07:26:05.880Z,20.00
2019-05-18T07:28:50.479Z,19.55
2019-05-18T07:31:34.017Z,19.80
2019-05-18T07:34:18.135Z,19.97
2019-05-18T07:37:02.249Z,19.77
2019-05-18T07:39:46.346Z,20.23
2019-05-18T07:42:30.505Z,19.20
2019-05-18T07:45:16.293Z,20.07
2019-05-18T07:48:00.211Z,18.33
2019-05-18T07:50:44.214Z,19.43
2019-05-18T07:53:28.744Z,20.00
2019-05-18T07:56:12.456Z,18.33
2019-05-18T07:58:56.061Z,18.10
2019-05-18T08:01:41.478Z,16.75
2019-05-18T08:04:25.022Z,18.37
2019-05-18T08:07:09.082Z,18.05
2019-05-18T08:09:54.804Z,17.80
2019-05-18T08:12:38.998Z,18.27
2019-05-18T08:15:23.677Z,16.80
2019-05-18T08:18:08.336Z,16.60
2019-05-18T08:20:52.251Z,15.63
2019-05-18T08:23:36.326Z,16.90
2019-05-18T08:26:20.223Z,15.93
2019-05-18T08:29:04.811Z,14.33
2019-05-18T08:31:48.413Z,14.93
2019-05-18T08:34:32.787Z,14.67
2019-05-18T08:37:17.179Z,16.37
2019-05-18T08:40:00.743Z,12.60
2019-05-18T08:42:44.935Z,12.17
2019-05-18T08:45:28.600Z,12.73
2019-05-18T08:48:12.387Z,12.13
2019-05-18T08:50:57.182Z,11.97
2019-05-18T08:53:40.835Z,12.50
2019-05-18T08:56:24.867Z,12.67
2019-05-18T08:59:08.520Z,11.53
2019-05-18T09:01:52.435Z,12.60
2019-05-18T09:04:37.767Z,12.07
2019-05-18T09:07:22.404Z,13.33
2019-05-18T09:10:07.131Z,11.73
2019-05-18T09:12:39.553Z,12.03
2019-05-18T09:15:25.481Z,12.90
2019-05-18T09:18:09.996Z,13.60
2019-05-18T09:20:54.114Z,12.03
2019-05-18T09:23:37.859Z,10.30
2019-05-18T09:26:23.397Z,11.07
2019-05-18T09:31:51.991Z,9.27
2019-05-18T09:34:35.789Z,8.00
2019-05-18T09:37:20.426Z,7.53
2019-05-18T09:40:06.050Z,7.83
2019-05-18T09:42:49.888Z,8.30
2019-05-18T09:45:33.809Z,7.60
2019-05-18T09:48:18.095Z,8.30
2019-05-18T09:51:02.927Z,7.93
2019-05-18T09:53:35.290Z,7.47
2019-05-18T09:56:21.105Z,8.03
2019-05-18T09:59:04.984Z,7.47
2019-05-18T10:01:49.083Z,6.92
2019-05-18T10:04:33.219Z,6.23
2019-05-18T10:07:18.247Z,6.67
2019-05-18T10:10:03.603Z,7.10
2019-05-18T10:12:47.279Z,8.23
2019-05-18T10:15:31.728Z,7.43
2019-05-18T10:18:15.766Z,7.37
2019-05-18T10:20:59.923Z,7.47
2019-05-18T10:23:43.653Z,7.30
2019-05-18T10:26:28.002Z,6.47
2019-05-18T10:29:12.246Z,6.85
2019-05-18T10:31:56.999Z,6.90
2019-05-18T10:34:45.004Z,7.00
2019-05-18T10:37:29.505Z,8.60
2019-05-18T10:40:14.132Z,7.60
2019-05-18T10:46:08.860Z,7.45
2019-05-18T10:48:53.218Z,6.93
2019-05-18T10:51:38.531Z,6.80
2019-05-18T10:54:23.727Z,6.63
2019-05-18T10:57:07.532Z,7.03
2019-05-18T10:59:54.062Z,6.80
2019-05-18T11:02:26.641Z,7.63
2019-05-18T11:05:10.779Z,8.30
2019-05-18T11:07:54.509Z,7.67
2019-05-18T11:10:39.174Z,8.40
2019-05-18T11:13:23.591Z,8.70
2019-05-18T11:16:09.339Z,8.37
2019-05-18T11:18:53.324Z,7.50
2019-05-18T11:21:36.995Z,8.03
2019-05-18T11:24:21.059Z,8.07
2019-05-18T11:27:07.088Z,8.03
2019-05-18T11:29:51.162Z,7.87
2019-05-18T11:35:21.014Z,8.45
2019-05-18T11:37:54.459Z,8.73
2019-05-18T11:40:39.777Z,8.73
2019-05-18T11:43:23.729Z,7.93
2019-05-18T11:46:08.168Z,9.83
2019-05-18T11:48:55.560Z,8.73
2019-05-18T11:51:39.279Z,9.03
2019-05-18T11:54:23.391Z,9.87
2019-05-18T11:57:08.020Z,9.23
2019-05-18T11:59:52.032Z,8.07
2019-05-18T12:02:37.089Z,8.60
2019-05-18T12:05:20.904Z,8.60
2019-05-18T12:08:05.315Z,8.37
2019-05-18T12:10:56.091Z,8.30
2019-05-18T12:13:51.355Z,8.40
2019-05-18T12:16:39.593Z,7.90
2019-05-18T12:19:24.058Z,8.27
2019-05-18T12:22:08.432Z,7.37
2019-05-18T12:24:57.166Z,6.77
2019-05-18T12:27:41.356Z,8.08
2019-05-18T12:30:26.211Z,7.77
2019-05-18T12:33:10.584Z,7.90
2019-05-18T12:35:56.161Z,6.83
2019-05-18T12:38:40.551Z,7.30
2019-05-18T12:41:31.635Z,7.10
2019-05-18T12:44:15.486Z,7.40
2019-05-18T12:47:01.606Z,7.63
2019-05-18T12:49:45.799Z,9.03
2019-05-18T12:52:29.693Z,9.57
2019-05-18T12:55:14.218Z,9.10
2019-05-18T12:57:58.785Z,9.00
2019-05-18T13:00:43.477Z,9.78
2019-05-18T13:03:27.497Z,9.20
2019-05-18T13:06:11.777Z,9.27
2019-05-18T13:08:57.707Z,8.90
2019-05-18T13:11:41.800Z,8.53
2019-05-18T13:14:25.605Z,7.90
2019-05-18T13:17:09.706Z,9.50
2019-05-18T13:19:53.223Z,8.70
2019-05-18T13:22:37.563Z,8.30
2019-05-18T13:25:21.928Z,9.47
2019-05-18T13:28:06.180Z,9.40
2019-05-18T13:30:50.379Z,9.00
2019-05-18T13:33:34.195Z,9.07
2019-05-18T13:36:18.709Z,9.00
2019-05-18T13:39:02.651Z,8.70
2019-05-18T13:41:46.688Z,8.90
2019-05-18T13:44:30.263Z,8.50
2019-05-18T13:47:14.086Z,8.20
2019-05-18T13:49:58.418Z,8.03
2019-05-18T13:52:43.178Z,8.27
2019-05-18T13:55:29.019Z,8.20
2019-05-18T13:58:12.805Z,8.43
2019-05-18T14:00:57.354Z,8.27
2019-05-18T14:03:41.192Z,7.73
2019-05-18T14:06:26.348Z,8.03
2019-05-18T14:08:58.887Z,7.45
2019-05-18T14:11:43.731Z,7.40
2019-05-18T14:14:29.657Z,7.27
2019-05-18T14:17:02.180Z,7.30
2019-05-18T14:19:50.033Z,6.87
2019-05-18T14:22:34.329Z,6.90
2019-05-18T14:25:19.740Z,7.27
2019-05-18T14:28:03.696Z,7.20
2019-05-18T14:30:47.704Z,7.15
2019-05-18T14:33:31.650Z,7.10
2019-05-18T14:36:16.573Z,7.10
2019-05-18T14:39:00.802Z,6.77
2019-05-18T14:44:47.039Z,7.28
2019-05-18T14:47:31.157Z,6.37
2019-05-18T14:50:15.548Z,6.80
2019-05-18T14:52:59.272Z,6.80
2019-05-18T14:55:42.862Z,7.13
2019-05-18T14:58:27.144Z,7.07
2019-05-18T15:01:10.842Z,6.73
2019-05-18T15:03:56.416Z,6.35
2019-05-18T15:06:30.727Z,6.88
2019-05-18T15:09:04.336Z,7.03
2019-05-18T15:11:36.797Z,6.85
2019-05-18T15:14:20.559Z,6.37
2019-05-18T15:16:53.181Z,7.33
2019-05-18T15:19:25.630Z,8.60
2019-05-18T15:21:57.902Z,7.23
2019-05-18T15:24:30.622Z,6.40
2019-05-18T15:27:03.893Z,5.70
2019-05-18T15:29:36.208Z,5.80
2019-05-18T15:32:08.782Z,5.60
2019-05-18T15:34:41.118Z,5.95
2019-05-18T15:37:24.812Z,5.50
2019-05-18T15:39:57.151Z,5.90
2019-05-18T15:42:41.409Z,5.67
2019-05-18T15:45:14.132Z,5.80
2019-05-18T15:47:46.813Z,5.23
2019-05-18T15:50:32.325Z,5.37
2019-05-18T15:53:16.246Z,5.13
2019-05-18T15:56:05.952Z,5.67
2019-05-18T15:58:47.497Z,5.25
2019-05-18T16:01:32.028Z,4.80
2019-05-18T16:04:16.940Z,5.07
2019-05-18T16:07:00.813Z,5.60
2019-05-18T16:09:45.152Z,5.03
2019-05-18T16:12:29.338Z,5.33
2019-05-18T16:15:02.594Z,5.40
2019-05-18T16:17:54.551Z,5.22
2019-05-18T16:20:38.755Z,4.75
2019-05-18T16:23:22.780Z,4.93
2019-05-18T16:26:20.657Z,4.30
2019-05-18T16:28:53.672Z,4.60
2019-05-18T16:31:37.532Z,4.17
2019-05-18T16:34:22.905Z,3.90
2019-05-18T16:37:06.846Z,4.90
2019-05-18T16:39:51.256Z,9.28
2019-05-18T16:42:35.172Z,6.30
2019-05-18T16:45:19.754Z,6.03
2019-05-18T16:48:04.377Z,5.40
2019-05-18T16:50:48.969Z,4.87
2019-05-18T16:53:32.921Z,4.40
2019-05-18T16:56:16.610Z,6.83
2019-05-18T16:59:01.038Z,9.70
2019-05-18T17:04:48.538Z,13.13
2019-05-18T17:07:20.963Z,12.65
2019-05-18T17:10:05.722Z,12.97
2019-05-18T17:12:50.404Z,12.20
2019-05-18T17:15:34.498Z,12.67
2019-05-18T17:18:18.319Z,12.63
2019-05-18T17:21:03.000Z,12.17
2019-05-18T17:23:47.994Z,12.35
2019-05-18T17:26:32.782Z,13.87
2019-05-18T17:29:18.303Z,13.58
2019-05-18T17:32:02.691Z,14.95
2019-05-18T17:34:47.040Z,13.47
2019-05-18T17:37:31.547Z,15.07
2019-05-18T17:40:16.039Z,16.03
2019-05-18T17:43:00.845Z,15.57
2019-05-18T17:45:44.836Z,16.60
2019-05-18T17:48:30.510Z,15.90
2019-05-18T17:51:14.767Z,15.67
2019-05-18T17:53:59.405Z,14.67
2019-05-18T17:56:44.780Z,14.37
2019-05-18T17:59:29.564Z,15.03
2019-05-18T18:02:15.008Z,15.87
2019-05-18T18:04:59.497Z,15.57
2019-05-18T18:07:43.012Z,15.20
2019-05-18T18:10:27.035Z,16.83
2019-05-18T18:13:11.736Z,15.30
2019-05-18T18:15:58.363Z,15.70
2019-05-18T18:18:46.803Z,15.17
2019-05-18T18:21:31.520Z,15.50
2019-05-18T18:24:15.512Z,15.77
2019-05-18T18:26:59.842Z,15.70
2019-05-18T18:29:43.762Z,14.78
2019-05-18T18:32:28.365Z,15.53
2019-05-18T18:35:13.108Z,16.73
2019-05-18T18:37:57.601Z,15.93
2019-05-18T18:40:42.660Z,17.40
2019-05-18T18:43:27.753Z,18.33
2019-05-18T18:46:11.793Z,16.53
2019-05-18T18:48:56.730Z,17.43
2019-05-18T18:51:40.490Z,17.23
2019-05-18T18:54:24.517Z,18.67
2019-05-18T18:57:08.290Z,18.40
2019-05-18T18:59:52.131Z,18.17
2019-05-18T19:02:36.367Z,17.23
2019-05-18T19:05:20.986Z,18.90
2019-05-18T19:08:04.784Z,17.37
2019-05-18T19:10:49.006Z,17.90
2019-05-18T19:13:21.644Z,17.07
2019-05-18T19:16:07.730Z,19.40
2019-05-18T19:18:52.245Z,18.80
2019-05-18T19:21:36.426Z,17.83
2019-05-18T19:24:20.863Z,19.05
2019-05-18T19:27:06.306Z,19.80
2019-05-18T19:29:53.248Z,19.50
2019-05-18T19:32:38.793Z,19.77
2019-05-18T19:35:28.202Z,20.15
2019-05-18T19:38:24.439Z,19.37
2019-05-18T19:41:08.356Z,18.37
2019-05-18T19:43:52.777Z,17.43
2019-05-18T19:46:38.222Z,19.10
2019-05-18T19:49:23.035Z,19.67
2019-05-18T19:52:06.818Z,19.80
2019-05-18T19:54:51.131Z,19.80
2019-05-18T19:57:36.183Z,21.60
2019-05-18T20:00:20.987Z,21.50
2019-05-18T20:02:53.981Z,20.08
2019-05-18T20:05:37.594Z,20.53
2019-05-18T20:08:21.254Z,19.90
2019-05-18T20:10:54.143Z,21.50
2019-05-18T20:13:38.520Z,21.30
2019-05-18T20:16:22.975Z,22.90
2019-05-18T20:19:06.832Z,22.53
2019-05-18T20:25:25.253Z,22.10
2019-05-18T20:28:22.857Z,23.27
2019-05-18T20:30:55.370Z,23.50
2019-05-18T20:33:28.190Z,25.37
2019-05-18T20:36:12.563Z,24.03
2019-05-18T20:38:56.642Z,24.87
2019-05-18T20:41:40.589Z,25.17
2019-05-18T20:44:24.441Z,24.33
2019-05-18T20:47:08.676Z,24.53
2019-05-18T20:49:52.304Z,23.17
2019-05-18T20:52:25.539Z,24.60
2019-05-18T20:55:09.602Z,24.03
2019-05-18T20:57:53.937Z,23.30
2019-05-18T21:00:38.706Z,20.47
2019-05-18T21:03:23.284Z,23.43
2019-05-18T21:06:07.384Z,23.03
2019-05-18T21:08:51.352Z,21.90
2019-05-18T21:11:35.089Z,22.07
2019-05-18T21:14:21.287Z,21.87
2019-05-18T21:17:05.762Z,20.87
2019-05-18T21:19:50.425Z,22.63
2019-05-18T21:22:35.290Z,23.17
2019-05-18T21:25:20.415Z,22.93
2019-05-18T21:28:04.790Z,22.83
2019-05-18T21:30:52.076Z,22.97
2019-05-18T21:33:36.134Z,20.87
2019-05-18T21:36:20.552Z,21.70
2019-05-18T21:39:05.301Z,21.43
2019-05-18T21:41:49.593Z,21.80
2019-05-18T21:44:34.524Z,21.77
2019-05-18T21:47:19.027Z,22.20
2019-05-18T21:50:03.451Z,21.83
2019-05-18T21:52:47.818Z,21.67
2019-05-18T21:55:31.892Z,22.70
2019-05-18T21:58:15.816Z,23.40
2019-05-18T22:00:59.464Z,23.10
2019-05-18T22:03:47.865Z,22.77
2019-05-18T22:09:32.386Z,23.37
2019-05-18T22:12:04.705Z,24.13
2019-05-18T22:14:48.313Z,23.73
2019-05-18T22:17:35.476Z,23.60
2019-05-18T22:20:21.535Z,24.30
2019-05-18T22:23:07.829Z,23.17
2019-05-18T22:25:51.515Z,23.95
2019-05-18T22:28:36.127Z,24.93
2019-05-18T22:31:20.475Z,23.10
2019-05-18T22:34:05.143Z,23.20
2019-05-18T22:36:48.852Z,23.97
2019-05-18T22:39:33.148Z,23.60
2019-05-18T22:42:05.523Z,24.17
2019-05-18T22:44:51.777Z,25.33
2019-05-18T22:47:38.454Z,25.03
2019-05-18T22:50:23.460Z,24.57
2019-05-18T22:53:07.236Z,23.87
2019-05-18T22:55:50.934Z,25.17
2019-05-18T22:58:35.181Z,25.47
2019-05-18T23:01:19.785Z,26.23
2019-05-18T23:04:04.161Z,25.52
2019-05-18T23:06:48.198Z,26.25
2019-05-18T23:09:33.625Z,25.75
2019-05-18T23:15:01.408Z,25.90
2019-05-18T23:17:45.036Z,27.20
2019-05-18T23:20:28.772Z,26.40
2019-05-18T23:23:13.095Z,26.40
2019-05-18T23:25:56.854Z,26.27
2019-05-18T23:28:41.141Z,26.17
2019-05-18T23:31:25.932Z,27.53
2019-05-18T23:34:11.512Z,25.97
2019-05-18T23:36:55.351Z,24.97
2019-05-18T23:39:39.200Z,25.93
2019-05-18T23:42:23.522Z,25.73
2019-05-18T23:45:07.571Z,26.43
2019-05-18T23:47:52.367Z,26.63
2019-05-18T23:50:36.506Z,26.77
2019-05-18T23:53:21.703Z,27.23
2019-05-18T23:56:06.036Z,25.53
2019-05-18T23:58:49.679Z,25.30
